Time,TemperatureF,DewpointF,PressureIn,WindDirection,WindDirectionDegrees,WindSpeedMPH,WindSpeedGustMPH,Humidity,HourlyPrecipIn,Conditions,Clouds,dailyrainin,SoftwareType,DateUTC
2013-09-25 00:02:00,52.5,49.7,30.01,South,180,0.0,0.0,90,0.00,,,0.00,pywws,2013-09-25 04:02:00,
2013-09-25 00:03:00,52.5,49.7,30.01,South,180,0.0,0.0,90,0.00,,,0.00,pywws,2013-09-25 04:03:00,
2013-09-25 00:04:00,52.5,49.7,30.01,South,180,0.0,0.0,90,0.00,,,0.00,pywws,2013-09-25 04:04:00,
2013-09-25 00:09:00,52.7,48.9,30.01,South,180,0.0,0.0,87,0.00,,,0.00,pywws,2013-09-25 04:09:00,
2013-09-25 00:14:00,52.5,48.5,30.00,South,180,0.0,0.0,86,0.00,,,0.00,pywws,2013-09-25 04:14:00,
2013-09-25 00:20:00,52.7,48.0,30.00,North,0,0.0,0.0,84,0.00,,,0.00,pywws,2013-09-25 04:20:00,
2013-09-25 00:21:00,52.7,47.7,30.00,North,0,0.0,0.0,83,0.00,,,0.00,pywws,2013-09-25 04:21:00,
2013-09-25 00:26:00,52.3,47.3,30.00,North,0,0.0,0.0,83,0.00,,,0.00,pywws,2013-09-25 04:26:00,
2013-09-25 00:32:00,52.3,47.0,30.00,West,270,0.0,0.0,82,0.00,,,0.00,pywws,2013-09-25 04:32:00,
2013-09-25 00:37:00,52.2,46.5,30.00,West,270,0.0,0.0,81,0.00,,,0.00,pywws,2013-09-25 04:37:00,
2013-09-25 00:42:00,51.8,45.5,30.00,West,270,0.0,0.0,79,0.00,,,0.00,pywws,2013-09-25 04:42:00,
2013-09-25 00:47:00,52.0,45.3,30.00,South,180,0.0,0.0,78,0.00,,,0.00,pywws,2013-09-25 04:47:00,
2013-09-25 00:52:00,52.2,45.2,30.00,South,180,0.0,0.0,77,0.00,,,0.00,pywws,2013-09-25 04:52:00,
2013-09-25 00:57:00,52.0,44.7,30.01,South,180,0.0,0.0,76,0.00,,,0.00,pywws,2013-09-25 04:57:00,
2013-09-25 01:02:00,51.6,44.3,30.00,South,180,0.0,0.0,76,0.00,,,0.00,pywws,2013-09-25 05:02:00,
2013-09-25 01:07:00,51.3,44.0,30.00,South,180,0.0,0.0,76,0.00,,,0.00,pywws,2013-09-25 05:07:00,
2013-09-25 01:12:00,51.1,43.8,30.00,South,180,0.0,0.0,76,0.00,,,0.00,pywws,2013-09-25 05:12:00,
2013-09-25 01:17:00,51.4,44.5,30.00,South,180,0.0,0.0,77,0.00,,,0.00,pywws,2013-09-25 05:17:00,
2013-09-25 01:22:00,51.8,43.8,30.00,South,180,0.0,0.0,74,0.00,,,0.00,pywws,2013-09-25 05:22:00,
2013-09-25 01:27:00,51.6,43.3,30.00,South,180,0.0,0.0,73,0.00,,,0.00,pywws,2013-09-25 05:27:00,
2013-09-25 01:32:00,51.6,42.9,30.00,South,180,0.0,0.0,72,0.00,,,0.00,pywws,2013-09-25 05:32:00,
2013-09-25 01:37:00,51.4,43.4,30.00,South,180,0.0,0.0,74,0.00,,,0.00,pywws,2013-09-25 05:37:00,
2013-09-25 01:42:00,51.4,43.1,30.00,South,180,0.0,0.0,73,0.00,,,0.00,pywws,2013-09-25 05:42:00,
2013-09-25 01:47:00,51.4,43.1,30.00,South,180,0.0,0.0,73,0.00,,,0.00,pywws,2013-09-25 05:47:00,
2013-09-25 01:52:00,51.1,42.7,30.00,South,180,0.0,0.0,73,0.00,,,0.00,pywws,2013-09-25 05:52:00,
2013-09-25 01:57:00,50.7,42.7,29.99,South,180,0.0,0.0,74,0.00,,,0.00,pywws,2013-09-25 05:57:00,
2013-09-25 02:02:00,50.5,42.6,30.00,South,180,0.0,0.0,74,0.00,,,0.00,pywws,2013-09-25 06:02:00,
2013-09-25 02:08:00,51.3,42.9,29.99,South,180,0.0,0.0,73,0.00,,,0.00,pywws,2013-09-25 06:08:00,
2013-09-25 02:13:00,50.9,42.2,29.99,South,180,0.0,0.0,72,0.00,,,0.00,pywws,2013-09-25 06:13:00,
2013-09-25 02:19:00,50.4,42.0,29.99,South,180,0.0,0.0,73,0.00,,,0.00,pywws,2013-09-25 06:19:00,
2013-09-25 02:25:00,50.5,42.2,29.99,South,180,0.0,0.0,73,0.00,,,0.00,pywws,2013-09-25 06:25:00,
2013-09-25 02:30:00,50.9,40.7,29.99,South,180,0.0,0.0,68,0.00,,,0.00,pywws,2013-09-25 06:30:00,
2013-09-25 02:36:00,51.1,40.9,29.98,South,180,0.0,0.0,68,0.00,,,0.00,pywws,2013-09-25 06:36:00,
2013-09-25 02:41:00,51.1,40.5,29.98,South,180,0.0,0.0,67,0.00,,,0.00,pywws,2013-09-25 06:41:00,
2013-09-25 02:47:00,50.9,41.5,29.98,South,180,0.0,0.0,70,0.00,,,0.00,pywws,2013-09-25 06:47:00,
2013-09-25 02:52:00,50.7,42.0,29.98,South,180,0.0,0.0,72,0.00,,,0.00,pywws,2013-09-25 06:52:00,
2013-09-25 02:57:00,50.9,42.2,29.98,South,180,0.0,0.0,72,0.00,,,0.00,pywws,2013-09-25 06:57:00,
2013-09-25 03:02:00,50.9,41.8,29.98,South,180,0.0,0.0,71,0.00,,,0.00,pywws,2013-09-25 07:02:00,
2013-09-25 03:07:00,51.1,42.4,29.98,South,180,0.0,0.0,72,0.00,,,0.00,pywws,2013-09-25 07:07:00,
2013-09-25 03:12:00,51.1,42.7,29.97,South,180,0.0,0.0,73,0.00,,,0.00,pywws,2013-09-25 07:12:00,
2013-09-25 03:18:00,50.9,42.9,29.97,South,180,0.0,0.0,74,0.00,,,0.00,pywws,2013-09-25 07:18:00,
2013-09-25 03:24:00,50.7,43.4,29.97,South,180,0.0,0.0,76,0.00,,,0.00,pywws,2013-09-25 07:24:00,
2013-09-25 03:29:00,50.7,44.1,29.97,South,180,0.0,0.0,78,0.00,,,0.00,pywws,2013-09-25 07:29:00,
2013-09-25 03:35:00,50.4,44.4,29.97,South,180,0.0,0.0,80,0.00,,,0.00,pywws,2013-09-25 07:35:00,
2013-09-25 03:41:00,50.2,44.9,29.97,South,180,0.0,0.0,82,0.00,,,0.00,pywws,2013-09-25 07:41:00,
2013-09-25 03:47:00,50.2,45.2,29.97,South,180,0.7,1.6,83,0.00,,,0.00,pywws,2013-09-25 07:47:00,
2013-09-25 03:52:00,50.2,45.5,29.97,South,180,0.7,1.6,84,0.00,,,0.00,pywws,2013-09-25 07:52:00,
2013-09-25 03:57:00,50.2,45.8,29.97,South,180,0.7,1.6,85,0.00,,,0.00,pywws,2013-09-25 07:57:00,
2013-09-25 04:02:00,50.0,45.7,29.97,South,180,0.0,0.0,85,0.00,,,0.00,pywws,2013-09-25 08:02:00,
2013-09-25 04:07:00,50.0,45.7,29.96,South,180,0.0,0.0,85,0.00,,,0.00,pywws,2013-09-25 08:07:00,
2013-09-25 04:12:00,50.0,46.3,29.97,South,180,0.0,1.6,87,0.00,,,0.00,pywws,2013-09-25 08:12:00,
2013-09-25 04:17:00,49.8,46.7,29.96,South,180,0.7,1.6,89,0.00,,,0.00,pywws,2013-09-25 08:17:00,
2013-09-25 04:22:00,49.8,47.0,29.96,South,180,0.7,1.6,90,0.00,,,0.00,pywws,2013-09-25 08:22:00,
2013-09-25 04:27:00,49.8,47.3,29.96,South,180,0.0,0.0,91,0.00,,,0.00,pywws,2013-09-25 08:27:00,
2013-09-25 04:32:00,49.8,47.6,29.96,South,180,0.0,0.7,92,0.00,,,0.00,pywws,2013-09-25 08:32:00,
2013-09-25 04:37:00,49.6,47.7,29.96,South,180,0.0,0.0,93,0.00,,,0.00,pywws,2013-09-25 08:37:00,
2013-09-25 04:42:00,49.5,47.8,29.96,South,180,0.0,0.7,94,0.00,,,0.00,pywws,2013-09-25 08:42:00,
2013-09-25 04:47:00,49.6,48.0,29.96,South,180,0.0,0.0,94,0.00,,,0.00,pywws,2013-09-25 08:47:00,
2013-09-25 04:52:00,49.8,48.4,29.96,South,180,0.7,1.6,95,0.00,,,0.00,pywws,2013-09-25 08:52:00,
2013-09-25 04:57:00,49.5,48.1,29.96,South,180,0.7,1.6,95,0.00,,,0.00,pywws,2013-09-25 08:57:00,
2013-09-25 05:02:00,49.6,48.3,29.96,South,180,0.7,1.6,95,0.00,,,0.00,pywws,2013-09-25 09:02:00,
2013-09-25 05:07:00,49.5,48.4,29.96,South,180,0.7,2.2,96,0.00,,,0.00,pywws,2013-09-25 09:07:00,
2013-09-25 05:12:00,49.3,48.2,29.96,South,180,0.7,1.6,96,0.00,,,0.00,pywws,2013-09-25 09:12:00,
2013-09-25 05:17:00,49.3,48.5,29.96,South,180,0.7,1.6,97,0.00,,,0.00,pywws,2013-09-25 09:17:00,
2013-09-25 05:22:00,49.8,49.0,29.96,South,180,0.7,1.6,97,0.00,,,0.00,pywws,2013-09-25 09:22:00,
2013-09-25 05:27:00,50.0,48.9,29.96,South,180,0.7,1.6,96,0.00,,,0.00,pywws,2013-09-25 09:27:00,
2013-09-25 05:32:00,49.6,48.8,29.96,South,180,0.7,1.6,97,0.00,,,0.00,pywws,2013-09-25 09:32:00,
2013-09-25 05:37:00,49.3,48.5,29.96,South,180,0.7,1.6,97,0.00,,,0.00,pywws,2013-09-25 09:37:00,
2013-09-25 05:42:00,49.3,48.7,29.96,South,180,0.7,1.6,98,0.00,,,0.00,pywws,2013-09-25 09:42:00,
2013-09-25 05:47:00,49.1,48.6,29.96,South,180,0.7,1.6,98,0.00,,,0.00,pywws,2013-09-25 09:47:00,
2013-09-25 05:52:00,49.3,49.0,29.96,South,180,0.7,1.6,99,0.00,,,0.00,pywws,2013-09-25 09:52:00,
2013-09-25 05:57:00,49.5,49.2,29.96,South,180,0.7,1.6,99,0.00,,,0.00,pywws,2013-09-25 09:57:00,
2013-09-25 06:02:00,49.3,49.0,29.96,South,180,0.0,0.7,99,0.00,,,0.00,pywws,2013-09-25 10:02:00,
2013-09-25 06:07:00,49.3,49.0,29.96,South,180,0.0,0.7,99,0.00,,,0.00,pywws,2013-09-25 10:07:00,
2013-09-25 06:12:00,49.6,49.4,29.96,South,180,0.7,1.6,99,0.00,,,0.00,pywws,2013-09-25 10:12:00,
2013-09-25 06:17:00,49.6,49.4,29.96,South,180,1.6,2.2,99,0.00,,,0.00,pywws,2013-09-25 10:17:00,
2013-09-25 06:22:00,49.6,49.4,29.96,South,180,1.6,2.2,99,0.00,,,0.00,pywws,2013-09-25 10:22:00,
2013-09-25 06:27:00,49.3,49.0,29.96,South,180,0.7,1.6,99,0.00,,,0.00,pywws,2013-09-25 10:27:00,
2013-09-25 06:32:00,49.5,49.2,29.96,South,180,0.7,1.6,99,0.00,,,0.00,pywws,2013-09-25 10:32:00,
2013-09-25 06:37:00,49.3,49.0,29.96,South,180,0.7,1.6,99,0.00,,,0.00,pywws,2013-09-25 10:37:00,
2013-09-25 06:42:00,49.1,48.8,29.96,South,180,0.7,2.2,99,0.00,,,0.00,pywws,2013-09-25 10:42:00,
2013-09-25 06:47:00,48.9,48.7,29.96,South,180,0.7,1.6,99,0.00,,,0.00,pywws,2013-09-25 10:47:00,
2013-09-25 06:52:00,49.3,49.0,29.96,South,180,0.7,1.6,99,0.00,,,0.00,pywws,2013-09-25 10:52:00,
2013-09-25 06:57:00,49.8,49.5,29.96,South,180,1.6,2.2,99,0.00,,,0.00,pywws,2013-09-25 10:57:00,
2013-09-25 07:02:00,49.3,49.0,29.96,South,180,0.7,1.6,99,0.00,,,0.00,pywws,2013-09-25 11:02:00,
2013-09-25 07:07:00,49.1,48.8,29.97,South,180,0.7,1.6,99,0.00,,,0.00,pywws,2013-09-25 11:07:00,
2013-09-25 07:12:00,48.9,48.7,29.97,South,180,0.7,1.6,99,0.00,,,0.00,pywws,2013-09-25 11:12:00,
2013-09-25 07:17:00,49.1,48.8,29.97,South,180,0.0,0.0,99,0.00,,,0.00,pywws,2013-09-25 11:17:00,
2013-09-25 07:22:00,49.1,48.8,29.97,South,180,0.0,0.7,99,0.00,,,0.00,pywws,2013-09-25 11:22:00,
2013-09-25 07:27:00,48.7,48.5,29.97,South,180,0.0,0.0,99,0.00,,,0.00,pywws,2013-09-25 11:27:00,
2013-09-25 07:32:00,48.6,48.3,29.97,South,180,0.0,0.0,99,0.00,,,0.00,pywws,2013-09-25 11:32:00,
2013-09-25 07:37:00,48.0,47.8,29.97,South,180,0.0,0.0,99,0.00,,,0.00,pywws,2013-09-25 11:37:00,
2013-09-25 07:42:00,48.2,47.9,29.97,South,180,0.0,0.0,99,0.00,,,0.00,pywws,2013-09-25 11:42:00,
2013-09-25 07:47:00,48.0,47.8,29.97,South,180,0.0,0.0,99,0.00,,,0.00,pywws,2013-09-25 11:47:00,
2013-09-25 07:52:00,47.8,47.6,29.97,South,180,0.0,0.0,99,0.00,,,0.00,pywws,2013-09-25 11:52:00,
2013-09-25 07:57:00,47.8,47.6,29.96,South,180,0.0,0.0,99,0.00,,,0.00,pywws,2013-09-25 11:57:00,
2013-09-25 08:02:00,47.8,47.6,29.96,South,180,0.0,0.0,99,0.00,,,0.00,pywws,2013-09-25 12:02:00,
2013-09-25 08:07:00,47.8,47.6,29.96,South,180,0.0,0.0,99,0.00,,,0.00,pywws,2013-09-25 12:07:00,
2013-09-25 08:12:00,48.7,48.5,29.97,South,180,0.0,0.0,99,0.00,,,0.00,pywws,2013-09-25 12:12:00,
2013-09-25 08:17:00,49.3,49.0,29.96,South,180,0.0,0.0,99,0.00,,,0.00,pywws,2013-09-25 12:17:00,
2013-09-25 08:22:00,50.0,49.7,29.97,South,180,0.7,1.6,99,0.00,,,0.00,pywws,2013-09-25 12:22:00,
2013-09-25 08:27:00,50.9,50.6,29.97,South,180,0.7,2.2,99,0.00,,,0.00,pywws,2013-09-25 12:27:00,
2013-09-25 08:30:00,51.8,51.3,29.97,South,180,0.0,1.6,98,0.00,,,0.00,pywws,2013-09-25 12:30:00,
2013-09-25 08:36:00,52.9,52.1,29.97,South,180,0.0,1.6,97,0.00,,,0.00,pywws,2013-09-25 12:36:00,
2013-09-25 08:41:00,53.6,51.6,29.97,South,180,0.7,2.2,93,0.00,,,0.00,pywws,2013-09-25 12:41:00,
2013-09-25 08:47:00,54.9,52.3,29.97,East,90,0.7,3.1,91,0.00,,,0.00,pywws,2013-09-25 12:47:00,
2013-09-25 08:52:00,56.1,51.7,29.97,SE,135,1.6,3.1,85,0.00,,,0.00,pywws,2013-09-25 12:52:00,
2013-09-25 08:57:00,57.4,51.3,29.97,NW,315,1.6,3.1,80,0.00,,,0.00,pywws,2013-09-25 12:57:00,
2013-09-25 09:02:00,57.7,50.9,29.97,East,90,0.7,2.2,78,0.00,,,0.00,pywws,2013-09-25 13:02:00,
2013-09-25 09:07:00,58.8,52.3,29.97,South,180,0.7,1.6,79,0.00,,,0.00,pywws,2013-09-25 13:07:00,
2013-09-25 09:12:00,58.6,51.8,29.97,South,180,0.0,1.6,78,0.00,,,0.00,pywws,2013-09-25 13:12:00,
2013-09-25 09:17:00,59.2,51.3,29.97,South,180,0.0,0.0,75,0.00,,,0.00,pywws,2013-09-25 13:17:00,
2013-09-25 09:22:00,59.2,51.3,29.98,South,180,0.0,0.0,75,0.00,,,0.00,pywws,2013-09-25 13:22:00,
2013-09-25 09:27:00,58.6,51.8,29.98,West,270,0.0,0.0,78,0.00,,,0.00,pywws,2013-09-25 13:27:00,
2013-09-25 09:32:00,59.5,52.3,29.97,North,0,0.0,0.0,77,0.00,,,0.00,pywws,2013-09-25 13:32:00,
2013-09-25 09:37:00,60.3,52.7,29.97,South,180,1.6,3.1,76,0.00,,,0.00,pywws,2013-09-25 13:37:00,
2013-09-25 09:42:00,60.4,51.4,29.98,North,0,0.0,0.0,72,0.00,,,0.00,pywws,2013-09-25 13:42:00,
2013-09-25 09:47:00,60.4,51.0,29.98,North,0,0.0,0.0,71,0.00,,,0.00,pywws,2013-09-25 13:47:00,
2013-09-25 09:52:00,60.8,51.0,29.98,South,180,0.0,1.6,70,0.00,,,0.00,pywws,2013-09-25 13:52:00,
2013-09-25 09:57:00,60.3,50.4,29.98,South,180,0.0,0.0,70,0.00,,,0.00,pywws,2013-09-25 13:57:00,
2013-09-25 10:02:00,60.4,51.0,29.98,North,0,0.0,0.0,71,0.00,,,0.00,pywws,2013-09-25 14:02:00,
2013-09-25 10:07:00,60.1,51.4,29.98,North,0,0.0,0.0,73,0.00,,,0.00,pywws,2013-09-25 14:07:00,
2013-09-25 10:12:00,60.8,52.1,29.98,South,180,0.0,0.7,73,0.00,,,0.00,pywws,2013-09-25 14:12:00,
2013-09-25 10:17:00,59.5,50.9,29.98,South,180,0.7,1.6,73,0.00,,,0.00,pywws,2013-09-25 14:17:00,
2013-09-25 10:22:00,59.5,50.9,29.98,South,180,0.7,1.6,73,0.00,,,0.00,pywws,2013-09-25 14:22:00,
2013-09-25 10:27:00,59.7,51.0,29.98,South,180,1.6,3.1,73,0.00,,,0.00,pywws,2013-09-25 14:27:00,
2013-09-25 10:32:00,59.5,50.9,29.98,South,180,0.0,0.7,73,0.00,,,0.00,pywws,2013-09-25 14:32:00,
2013-09-25 10:37:00,60.3,51.6,29.98,South,180,0.0,0.7,73,0.00,,,0.00,pywws,2013-09-25 14:37:00,
2013-09-25 10:42:00,59.9,51.6,29.98,South,180,1.6,3.1,74,0.00,,,0.00,pywws,2013-09-25 14:42:00,
2013-09-25 10:47:00,60.4,51.4,29.98,South,180,1.6,3.1,72,0.00,,,0.00,pywws,2013-09-25 14:47:00,
2013-09-25 10:53:00,63.1,53.2,29.98,East,90,1.6,3.1,70,0.00,,,0.00,pywws,2013-09-25 14:53:00,
2013-09-25 10:58:00,64.6,52.5,29.98,West,270,0.0,0.0,65,0.00,,,0.00,pywws,2013-09-25 14:58:00,
2013-09-25 11:04:00,64.4,52.4,29.98,SE,135,1.6,3.1,65,0.00,,,0.00,pywws,2013-09-25 15:04:00,
2013-09-25 11:09:00,65.5,51.7,29.98,South,180,0.7,2.2,61,0.00,,,0.00,pywws,2013-09-25 15:09:00,
2013-09-25 11:15:00,65.1,50.4,29.98,North,0,0.7,2.2,59,0.00,,,0.00,pywws,2013-09-25 15:15:00,
2013-09-25 11:21:00,66.7,51.9,29.98,North,0,0.0,0.0,59,0.00,,,0.00,pywws,2013-09-25 15:21:00,
2013-09-25 11:26:00,69.1,52.7,29.98,East,90,0.0,0.0,56,0.00,,,0.00,pywws,2013-09-25 15:26:00,
2013-09-25 11:32:00,69.3,51.9,29.98,South,180,4.5,6.0,54,0.00,,,0.00,pywws,2013-09-25 15:32:00,
2013-09-25 11:37:00,66.9,50.7,29.98,South,180,0.7,2.2,56,0.00,,,0.00,pywws,2013-09-25 15:37:00,
2013-09-25 11:42:00,68.7,52.4,29.99,West,270,0.0,1.6,56,0.00,,,0.00,pywws,2013-09-25 15:42:00,
2013-09-25 11:47:00,66.4,53.0,29.98,West,270,1.6,3.1,62,0.00,,,0.00,pywws,2013-09-25 15:47:00,
2013-09-25 11:52:00,66.7,54.2,29.98,West,270,0.7,1.6,64,0.00,,,0.00,pywws,2013-09-25 15:52:00,
2013-09-25 11:57:00,69.1,55.9,29.98,North,0,0.0,1.6,63,0.00,,,0.00,pywws,2013-09-25 15:57:00,
2013-09-25 12:02:00,67.5,54.0,29.98,West,270,0.0,2.2,62,0.00,,,0.00,pywws,2013-09-25 16:02:00,
2013-09-25 12:07:00,70.3,54.8,29.98,North,0,0.7,1.6,58,0.00,,,0.00,pywws,2013-09-25 16:07:00,
2013-09-25 12:12:00,70.5,54.1,29.98,West,270,0.7,1.6,56,0.00,,,0.00,pywws,2013-09-25 16:12:00,
2013-09-25 12:17:00,72.1,55.1,29.98,North,0,0.7,1.6,55,0.00,,,0.00,pywws,2013-09-25 16:17:00,
2013-09-25 12:22:00,71.6,54.1,29.98,North,0,1.6,3.1,54,0.00,,,0.00,pywws,2013-09-25 16:22:00,
2013-09-25 12:27:00,70.0,53.6,29.98,South,180,0.0,0.0,56,0.00,,,0.00,pywws,2013-09-25 16:27:00,
2013-09-25 12:32:00,72.9,54.7,29.98,South,180,0.0,0.7,53,0.00,,,0.00,pywws,2013-09-25 16:32:00,
2013-09-25 12:37:00,71.6,52.5,29.98,South,180,3.1,4.5,51,0.00,,,0.00,pywws,2013-09-25 16:37:00,
2013-09-25 12:42:00,74.1,54.3,29.97,SW,225,1.6,2.2,50,0.00,,,0.00,pywws,2013-09-25 16:42:00,
2013-09-25 12:47:00,72.3,48.6,29.97,South,180,1.6,3.1,43,0.00,,,0.00,pywws,2013-09-25 16:47:00,
2013-09-25 12:52:00,70.3,44.9,29.97,SE,135,3.8,5.4,40,0.00,,,0.00,pywws,2013-09-25 16:52:00,
2013-09-25 12:57:00,72.7,47.6,29.97,SE,135,3.1,5.4,41,0.00,,,0.00,pywws,2013-09-25 16:57:00,
2013-09-25 13:02:00,71.6,45.3,29.96,South,180,0.7,3.1,39,0.00,,,0.00,pywws,2013-09-25 17:02:00,
2013-09-25 13:07:00,72.3,46.0,29.97,South,180,2.2,4.5,39,0.00,,,0.00,pywws,2013-09-25 17:07:00,
2013-09-25 13:12:00,70.3,44.9,29.97,South,180,4.5,6.9,40,0.00,,,0.00,pywws,2013-09-25 17:12:00,
2013-09-25 13:17:00,71.1,46.8,29.96,SW,225,2.2,3.8,42,0.00,,,0.00,pywws,2013-09-25 17:17:00,
2013-09-25 13:22:00,72.0,46.3,29.97,South,180,3.1,4.5,40,0.00,,,0.00,pywws,2013-09-25 17:22:00,
2013-09-25 13:27:00,70.9,45.3,29.97,South,180,6.0,7.6,40,0.00,,,0.00,pywws,2013-09-25 17:27:00,
2013-09-25 13:32:00,73.2,47.4,29.97,South,180,0.0,2.2,40,0.00,,,0.00,pywws,2013-09-25 17:32:00,
2013-09-25 13:37:00,73.2,46.8,29.97,SE,135,4.5,8.3,39,0.00,,,0.00,pywws,2013-09-25 17:37:00,
2013-09-25 13:42:00,73.2,46.1,29.96,South,180,3.1,4.5,38,0.00,,,0.00,pywws,2013-09-25 17:42:00,
2013-09-25 13:47:00,72.3,44.6,29.96,SW,225,3.1,6.0,37,0.00,,,0.00,pywws,2013-09-25 17:47:00,
2013-09-25 13:52:00,74.1,48.2,29.96,SW,225,2.2,3.8,40,0.00,,,0.00,pywws,2013-09-25 17:52:00,
2013-09-25 13:57:00,73.0,45.9,29.96,South,180,1.6,3.1,38,0.00,,,0.00,pywws,2013-09-25 17:57:00,
2013-09-25 14:02:00,71.4,47.1,29.95,South,180,3.8,8.3,42,0.00,,,0.00,pywws,2013-09-25 18:02:00,
2013-09-25 14:07:00,72.3,48.6,29.95,NE,45,1.6,3.8,43,0.00,,,0.00,pywws,2013-09-25 18:07:00,
2013-09-25 14:12:00,71.4,47.1,29.95,South,180,3.1,4.5,42,0.00,,,0.00,pywws,2013-09-25 18:12:00,
2013-09-25 14:17:00,72.5,48.7,29.95,South,180,3.1,6.9,43,0.00,,,0.00,pywws,2013-09-25 18:17:00,
2013-09-25 14:22:00,71.1,47.4,29.95,North,0,1.6,3.8,43,0.00,,,0.00,pywws,2013-09-25 18:22:00,
2013-09-25 14:27:00,70.7,47.1,29.95,South,180,4.5,6.0,43,0.00,,,0.00,pywws,2013-09-25 18:27:00,
2013-09-25 14:32:00,71.4,49.0,29.95,East,90,3.1,4.5,45,0.00,,,0.00,pywws,2013-09-25 18:32:00,
2013-09-25 14:37:00,72.9,49.0,29.94,West,270,0.0,0.7,43,0.00,,,0.00,pywws,2013-09-25 18:37:00,
2013-09-25 14:42:00,72.9,49.0,29.94,North,0,0.7,1.6,43,0.00,,,0.00,pywws,2013-09-25 18:42:00,
2013-09-25 14:47:00,72.1,47.8,29.94,SW,225,3.8,6.9,42,0.00,,,0.00,pywws,2013-09-25 18:47:00,
2013-09-25 14:52:00,72.9,46.4,29.94,North,0,3.1,5.4,39,0.00,,,0.00,pywws,2013-09-25 18:52:00,
2013-09-25 14:57:00,72.1,45.8,29.94,SE,135,3.8,6.9,39,0.00,,,0.00,pywws,2013-09-25 18:57:00,
2013-09-25 15:02:00,72.9,47.8,29.94,South,180,0.7,3.1,41,0.00,,,0.00,pywws,2013-09-25 19:02:00,
2013-09-25 15:07:00,74.1,48.9,29.94,North,0,0.7,1.6,41,0.00,,,0.00,pywws,2013-09-25 19:07:00,
2013-09-25 15:12:00,73.0,47.3,29.94,South,180,2.2,3.8,40,0.00,,,0.00,pywws,2013-09-25 19:12:00,
2013-09-25 15:17:00,73.9,48.7,29.94,North,0,1.6,3.1,41,0.00,,,0.00,pywws,2013-09-25 19:17:00,
2013-09-25 15:22:00,73.2,47.4,29.94,SE,135,0.7,1.6,40,0.00,,,0.00,pywws,2013-09-25 19:22:00,
2013-09-25 15:27:00,72.5,47.4,29.93,North,0,2.2,3.1,41,0.00,,,0.00,pywws,2013-09-25 19:27:00,
2013-09-25 15:32:00,72.9,47.8,29.93,North,0,0.7,2.2,41,0.00,,,0.00,pywws,2013-09-25 19:32:00,
2013-09-25 15:37:00,73.2,48.1,29.93,SW,225,1.6,3.1,41,0.00,,,0.00,pywws,2013-09-25 19:37:00,
2013-09-25 15:42:00,72.3,47.3,29.93,SE,135,0.0,1.6,41,0.00,,,0.00,pywws,2013-09-25 19:42:00,
2013-09-25 15:47:00,73.8,49.9,29.93,West,270,0.7,2.2,43,0.00,,,0.00,pywws,2013-09-25 19:47:00,
2013-09-25 15:52:00,73.0,48.6,29.93,North,0,0.0,1.6,42,0.00,,,0.00,pywws,2013-09-25 19:52:00,
2013-09-25 15:57:00,73.2,48.7,29.93,North,0,0.0,1.6,42,0.00,,,0.00,pywws,2013-09-25 19:57:00,
2013-09-25 16:02:00,73.6,49.7,29.93,SE,135,0.0,0.7,43,0.00,,,0.00,pywws,2013-09-25 20:02:00,
2013-09-25 16:07:00,73.4,44.8,29.93,North,0,0.7,2.2,36,0.00,,,0.00,pywws,2013-09-25 20:07:00,
2013-09-25 16:12:00,74.1,51.4,29.93,North,0,0.7,1.6,45,0.00,,,0.00,pywws,2013-09-25 20:12:00,
2013-09-25 16:17:00,74.7,46.6,29.93,North,0,2.2,5.4,37,0.00,,,0.00,pywws,2013-09-25 20:17:00,
2013-09-25 16:22:00,71.4,54.9,29.93,East,90,0.7,1.6,56,0.00,,,0.00,pywws,2013-09-25 20:22:00,
2013-09-25 16:27:00,71.8,55.7,29.93,North,0,1.6,2.2,57,0.00,,,0.00,pywws,2013-09-25 20:27:00,
2013-09-25 16:32:00,71.1,56.0,29.93,South,180,1.6,3.1,59,0.00,,,0.00,pywws,2013-09-25 20:32:00,
2013-09-25 16:37:00,70.3,57.1,29.93,North,0,0.7,1.6,63,0.00,,,0.00,pywws,2013-09-25 20:37:00,
2013-09-25 16:42:00,70.0,56.8,29.93,North,0,1.6,4.5,63,0.00,,,0.00,pywws,2013-09-25 20:42:00,
2013-09-25 16:47:00,69.6,57.3,29.93,North,0,1.6,3.1,65,0.00,,,0.00,pywws,2013-09-25 20:47:00,
2013-09-25 16:52:00,69.6,57.3,29.93,North,0,0.7,2.2,65,0.00,,,0.00,pywws,2013-09-25 20:52:00,
2013-09-25 16:57:00,69.1,57.2,29.93,North,0,0.0,0.7,66,0.00,,,0.00,pywws,2013-09-25 20:57:00,
2013-09-25 17:02:00,68.9,57.1,29.93,NW,315,2.2,3.1,66,0.00,,,0.00,pywws,2013-09-25 21:02:00,
2013-09-25 17:07:00,68.7,57.3,29.93,West,270,2.2,3.8,67,0.00,,,0.00,pywws,2013-09-25 21:07:00,
2013-09-25 17:12:00,68.4,57.0,29.93,North,0,0.0,1.6,67,0.00,,,0.00,pywws,2013-09-25 21:12:00,
2013-09-25 17:17:00,67.8,57.3,29.93,North,0,1.6,2.2,69,0.00,,,0.00,pywws,2013-09-25 21:17:00,
2013-09-25 17:22:00,67.6,57.1,29.93,North,0,0.7,1.6,69,0.00,,,0.00,pywws,2013-09-25 21:22:00,
2013-09-25 17:27:00,67.6,57.9,29.93,North,0,0.7,1.6,71,0.00,,,0.00,pywws,2013-09-25 21:27:00,
2013-09-25 17:32:00,67.5,57.7,29.93,North,0,0.0,1.6,71,0.00,,,0.00,pywws,2013-09-25 21:32:00,
2013-09-25 17:37:00,67.5,57.7,29.93,NE,45,0.7,1.6,71,0.00,,,0.00,pywws,2013-09-25 21:37:00,
2013-09-25 17:42:00,67.5,57.7,29.93,North,0,0.7,1.6,71,0.00,,,0.00,pywws,2013-09-25 21:42:00,
2013-09-25 17:47:00,67.6,57.5,29.94,North,0,0.7,2.2,70,0.00,,,0.00,pywws,2013-09-25 21:47:00,
2013-09-25 17:52:00,67.5,57.7,29.94,North,0,2.2,3.1,71,0.00,,,0.00,pywws,2013-09-25 21:52:00,
2013-09-25 17:57:00,66.9,56.8,29.94,North,0,0.0,1.6,70,0.00,,,0.00,pywws,2013-09-25 21:57:00,
2013-09-25 18:02:00,67.1,57.4,29.94,North,0,0.0,1.6,71,0.00,,,0.00,pywws,2013-09-25 22:02:00,
2013-09-25 18:07:00,66.7,56.6,29.94,North,0,0.0,0.7,70,0.00,,,0.00,pywws,2013-09-25 22:07:00,
2013-09-25 18:12:00,66.6,56.5,29.94,North,0,0.0,0.7,70,0.00,,,0.00,pywws,2013-09-25 22:12:00,
2013-09-25 18:17:00,66.4,56.3,29.94,North,0,0.0,0.7,70,0.00,,,0.00,pywws,2013-09-25 22:17:00,
2013-09-25 18:22:00,66.2,56.1,29.95,North,0,0.0,0.0,70,0.00,,,0.00,pywws,2013-09-25 22:22:00,
2013-09-25 18:27:00,65.7,55.6,29.95,NE,45,2.2,4.5,70,0.00,,,0.00,pywws,2013-09-25 22:27:00,
2013-09-25 18:32:00,65.7,55.6,29.95,NW,315,0.0,0.0,70,0.00,,,0.00,pywws,2013-09-25 22:32:00,
2013-09-25 18:37:00,65.3,55.3,29.95,North,0,0.0,0.0,70,0.00,,,0.00,pywws,2013-09-25 22:37:00,
2013-09-25 18:42:00,64.9,54.5,29.95,North,0,1.6,3.1,69,0.00,,,0.00,pywws,2013-09-25 22:42:00,
2013-09-25 18:47:00,64.6,54.2,29.95,North,0,1.6,3.1,69,0.00,,,0.00,pywws,2013-09-25 22:47:00,
2013-09-25 18:52:00,64.4,54.4,29.95,North,0,0.7,2.2,70,0.00,,,0.00,pywws,2013-09-25 22:52:00,
2013-09-25 18:57:00,64.2,54.6,29.95,East,90,0.0,0.0,71,0.00,,,0.00,pywws,2013-09-25 22:57:00,
2013-09-25 19:02:00,64.0,54.4,29.95,North,0,0.0,2.2,71,0.00,,,0.00,pywws,2013-09-25 23:02:00,
2013-09-25 19:07:00,63.7,54.1,29.96,North,0,0.0,1.6,71,0.00,,,0.00,pywws,2013-09-25 23:07:00,
2013-09-25 19:12:00,63.3,54.1,29.95,North,0,0.0,1.6,72,0.00,,,0.00,pywws,2013-09-25 23:12:00,
2013-09-25 19:17:00,63.1,53.6,29.96,North,0,0.7,1.6,71,0.00,,,0.00,pywws,2013-09-25 23:17:00,
2013-09-25 19:22:00,62.8,53.2,29.96,North,0,0.0,0.0,71,0.00,,,0.00,pywws,2013-09-25 23:22:00,
2013-09-25 19:27:00,62.6,53.4,29.96,North,0,0.0,0.0,72,0.00,,,0.00,pywws,2013-09-25 23:27:00,
2013-09-25 19:32:00,62.2,53.5,29.96,North,0,0.0,0.0,73,0.00,,,0.00,pywws,2013-09-25 23:32:00,
2013-09-25 19:37:00,61.9,53.5,29.96,North,0,0.0,0.0,74,0.00,,,0.00,pywws,2013-09-25 23:37:00,
2013-09-25 19:42:00,61.7,53.3,29.96,North,0,0.0,0.0,74,0.00,,,0.00,pywws,2013-09-25 23:42:00,
2013-09-25 19:47:00,61.5,53.5,29.96,NE,45,0.0,0.0,75,0.00,,,0.00,pywws,2013-09-25 23:47:00,
2013-09-25 19:52:00,61.3,53.3,29.96,North,0,0.0,0.0,75,0.00,,,0.00,pywws,2013-09-25 23:52:00,
2013-09-25 19:57:00,61.0,53.4,29.96,North,0,0.0,0.0,76,0.00,,,0.00,pywws,2013-09-25 23:57:00,
2013-09-25 20:02:00,61.0,53.7,29.96,North,0,0.0,0.0,77,0.00,,,0.00,pywws,2013-09-26 00:02:00,
2013-09-25 20:07:00,60.8,53.5,29.96,North,0,0.0,0.0,77,0.00,,,0.00,pywws,2013-09-26 00:07:00,
2013-09-25 20:12:00,60.6,54.1,29.96,North,0,0.0,0.0,79,0.00,,,0.00,pywws,2013-09-26 00:12:00,
2013-09-25 20:17:00,60.4,54.2,29.96,North,0,0.0,0.0,80,0.00,,,0.00,pywws,2013-09-26 00:17:00,
2013-09-25 20:22:00,60.4,54.6,29.96,North,0,0.0,0.0,81,0.00,,,0.00,pywws,2013-09-26 00:22:00,
2013-09-25 20:27:00,60.3,54.4,29.96,East,90,0.0,0.0,81,0.00,,,0.00,pywws,2013-09-26 00:27:00,
2013-09-25 20:32:00,60.1,54.2,29.96,North,0,0.7,2.2,81,0.00,,,0.00,pywws,2013-09-26 00:32:00,
2013-09-25 20:37:00,59.9,53.7,29.96,North,0,0.0,0.7,80,0.00,,,0.00,pywws,2013-09-26 00:37:00,
2013-09-25 20:43:00,60.1,53.9,29.96,North,0,0.0,0.7,80,0.00,,,0.00,pywws,2013-09-26 00:43:00,
2013-09-25 20:49:00,60.1,53.5,29.96,North,0,0.0,0.7,79,0.00,,,0.00,pywws,2013-09-26 00:49:00,
2013-09-25 20:54:00,59.9,53.4,29.97,North,0,0.0,0.0,79,0.00,,,0.00,pywws,2013-09-26 00:54:00,
2013-09-25 21:00:00,59.5,53.0,29.97,North,0,0.0,0.7,79,0.00,,,0.00,pywws,2013-09-26 01:00:00,
2013-09-25 21:05:00,59.5,52.7,29.97,North,0,0.0,0.0,78,0.00,,,0.00,pywws,2013-09-26 01:05:00,
2013-09-25 21:11:00,59.4,52.5,29.97,East,90,0.0,0.0,78,0.00,,,0.00,pywws,2013-09-26 01:11:00,
2013-09-25 21:17:00,59.0,52.1,29.97,SW,225,0.0,0.0,78,0.00,,,0.00,pywws,2013-09-26 01:17:00,
2013-09-25 21:22:00,59.0,52.1,29.97,SW,225,0.0,0.0,78,0.00,,,0.00,pywws,2013-09-26 01:22:00,
2013-09-25 21:27:00,59.0,52.1,29.97,West,270,0.0,1.6,78,0.00,,,0.00,pywws,2013-09-26 01:27:00,
2013-09-25 21:32:00,59.0,51.8,29.97,North,0,0.0,0.0,77,0.00,,,0.00,pywws,2013-09-26 01:32:00,
2013-09-25 21:37:00,58.5,51.6,29.97,North,0,0.0,0.0,78,0.00,,,0.00,pywws,2013-09-26 01:37:00,
2013-09-25 21:42:00,58.5,51.3,29.97,North,0,0.0,0.7,77,0.00,,,0.00,pywws,2013-09-26 01:42:00,
2013-09-25 21:47:00,58.6,51.1,29.98,North,0,0.0,0.0,76,0.00,,,0.00,pywws,2013-09-26 01:47:00,
2013-09-25 21:52:00,58.6,51.1,29.97,North,0,0.0,0.0,76,0.00,,,0.00,pywws,2013-09-26 01:52:00,
2013-09-25 21:57:00,58.6,50.7,29.97,North,0,0.0,0.7,75,0.00,,,0.00,pywws,2013-09-26 01:57:00,
2013-09-25 22:02:00,58.5,50.9,29.97,NE,45,2.2,3.1,76,0.00,,,0.00,pywws,2013-09-26 02:02:00,
2013-09-25 22:07:00,58.5,50.9,29.97,North,0,0.0,0.0,76,0.00,,,0.00,pywws,2013-09-26 02:07:00,
2013-09-25 22:12:00,58.5,50.9,29.97,North,0,0.0,0.0,76,0.00,,,0.00,pywws,2013-09-26 02:12:00,
2013-09-25 22:17:00,58.3,50.7,29.97,East,90,0.0,0.0,76,0.00,,,0.00,pywws,2013-09-26 02:17:00,
2013-09-25 22:22:00,57.9,50.4,29.97,West,270,0.0,0.0,76,0.00,,,0.00,pywws,2013-09-26 02:22:00,
2013-09-25 22:27:00,57.7,50.2,29.97,North,0,0.0,0.0,76,0.00,,,0.00,pywws,2013-09-26 02:27:00,
2013-09-25 22:32:00,57.9,50.0,29.97,North,0,0.0,0.0,75,0.00,,,0.00,pywws,2013-09-26 02:32:00,
2013-09-25 22:37:00,57.9,50.0,29.97,North,0,0.0,0.0,75,0.00,,,0.00,pywws,2013-09-26 02:37:00,
2013-09-25 22:42:00,57.7,49.9,29.98,North,0,0.0,0.0,75,0.00,,,0.00,pywws,2013-09-26 02:42:00,
2013-09-25 22:47:00,57.6,49.7,29.97,North,0,0.0,0.0,75,0.00,,,0.00,pywws,2013-09-26 02:47:00,
2013-09-25 22:52:00,57.6,49.7,29.97,North,0,0.0,1.6,75,0.00,,,0.00,pywws,2013-09-26 02:52:00,
2013-09-25 22:57:00,57.6,49.3,29.97,North,0,0.0,0.0,74,0.00,,,0.00,pywws,2013-09-26 02:57:00,
2013-09-25 23:02:00,57.6,49.3,29.97,NW,315,0.0,0.7,74,0.00,,,0.00,pywws,2013-09-26 03:02:00,
2013-09-25 23:08:00,57.7,49.5,29.98,North,0,0.0,0.7,74,0.00,,,0.00,pywws,2013-09-26 03:08:00,
2013-09-25 23:13:00,57.9,48.9,29.98,North,0,0.0,0.0,72,0.00,,,0.00,pywws,2013-09-26 03:13:00,
2013-09-25 23:19:00,57.9,48.9,29.98,North,0,0.0,0.0,72,0.00,,,0.00,pywws,2013-09-26 03:19:00,
2013-09-25 23:25:00,57.9,48.9,29.98,North,0,0.0,0.0,72,0.00,,,0.00,pywws,2013-09-26 03:25:00,
2013-09-25 23:30:00,58.1,48.7,29.98,South,180,0.7,1.6,71,0.00,,,0.00,pywws,2013-09-26 03:30:00,
2013-09-25 23:36:00,58.3,48.5,29.98,North,0,0.0,0.0,70,0.00,,,0.00,pywws,2013-09-26 03:36:00,
2013-09-25 23:41:00,57.9,48.6,29.98,SE,135,0.0,1.6,71,0.00,,,0.00,pywws,2013-09-26 03:41:00,
2013-09-25 23:47:00,58.6,49.3,29.98,SW,225,0.7,3.1,71,0.00,,,0.00,pywws,2013-09-26 03:47:00,
2013-09-25 23:52:00,58.1,48.7,29.98,North,0,0.0,0.0,71,0.00,,,0.00,pywws,2013-09-26 03:52:00,
2013-09-25 23:57:00,57.9,49.3,29.98,South,180,0.0,0.0,73,0.00,,,0.00,pywws,2013-09-26 03:57:00,